Historyczne dane pomiarowe

Dodano dane terminowe – wersja testowa.

Dane z okresu 1951-2019

Wersja bazy: 1.34 [2019-03-16, lista zmian], aktualizacja planowana na 2019-04-15

Dane meteo z obszaru Polski uzyskane na podstawie danych udostępnionych przez Instytut Meteorologii i Gospodarki Wodnej – Państwowy Instytut Badawczy.

 

Wybierz Datę:    

       

TemperaturaWilgotnośćWiatrCiśnienieOpadyŚniegCzas trwania zjawisk
 Stacja t tx tn tng RH VA  wxwx mslp ppp RRR   cm mm wxwxwxwxwxwxwx
1994-08-14 14.9 19.1 12.6- 70.3- 6.7 1.3---- 0.0------------
1994-08-13 17.0 21.3 13.3- 79.5- 6.7 1.3---- 0.2------------
1994-08-12 16.8 22.1 13.6- 85.8- 6.7 0.3---- 4.8------------
1994-08-11 19.1 29.7 15.1- 76.0- 8.0 1.0---- 8.0------------
1994-08-10 19.7 25.6 15.9- 70.3- 4.0 1.7---- 0.0------------
1994-08-09 20.3 28.7 15.5- 75.5- 5.7 1.3---- 0.2------------
1994-08-08 20.4 29.9 17.0- 78.5- 7.0 1.0---- 5.8------------
1994-08-07 21.9 29.7 14.7- 72.0- 6.0 0.0---- 0.0------------
1994-08-06 20.8 30.2 12.5- 71.3- 3.0 0.7---- 0.0------------
1994-08-05 20.5 27.6 14.8- 71.3- 3.3 1.3---- 0.0------------
1994-08-04 19.6 27.1 15.1- 78.0- 6.3 0.7---- 0.0------------
1994-08-03 20.5 30.5 15.6- 75.8- 5.7 0.0---- 35.6------------
1994-08-02 22.2 30.9 13.1- 60.3- 2.0 0.7---- 0.0------------
1994-08-01 23.3 31.3 14.8- 66.5- 3.0 2.0---- 0.0------------
1994-07-31 23.6 31.0 13.6- 66.5- 1.0 1.0---- 0.0------------
1994-07-30 21.8 30.2 13.2- 64.8- 1.0 1.7---- 0.0------------
1994-07-29 22.4 32.1 12.1- 63.3- 1.0 1.0---- 0.0------------
1994-07-28 21.8 29.7 14.4- 63.5- 0.3 1.0---- 0.0------------
1994-07-27 21.0 30.7 13.1- 67.0- 2.0 1.0---- 0.0------------
1994-07-26 21.7 31.2 12.0- 59.8- 2.0 0.7---- 0.0------------
1994-07-25 21.7 30.2 12.6- 60.3- 0.7 0.7---- 0.0------------
1994-07-24 20.3 27.6 11.4- 65.3- 1.7 0.7---- 0.0------------
1994-07-23 18.8 26.1 9.8- 68.0- 1.0 1.0---- 0.0------------
1994-07-22 18.3 26.2 9.4- 65.3- 1.3 0.7---- 0.0------------
1994-07-21 17.0 24.1 8.9- 69.8- 0.0 1.0---- 0.0------------
1994-07-20 17.3 22.5 11.4- 65.5- 4.0 1.0---- 0.0------------
1994-07-19 18.2 23.6 13.6- 74.5- 4.7 0.7---- 0.0------------
1994-07-18 19.2 25.2 16.1- 81.8- 6.0 0.0---- 5.0------------
1994-07-17 21.6 28.9 14.5- 72.0- 4.7 0.0---- 5.9------------
1994-07-16 21.4 29.4 13.6- 69.3- 2.7 0.7---- 0.0------------
1994-07-15 20.5 25.7 15.0- 73.8- 5.7 1.3---- 0.0------------
1994-07-14 18.9 25.5 12.2- 71.8- 6.7 1.0---- 0.0------------
1994-07-13 18.9 25.4 13.0- 77.3- 4.7 1.3---- 0.0------------
1994-07-12 19.7 24.5 15.9- 71.8- 6.0 3.0---- 0.0------------
1994-07-11 15.1 18.1 11.6- 85.3- 8.0 1.7---- 0.2------------
1994-07-10 14.4 19.0 10.6- 82.8- 7.3 2.0---- 9.5------------
1994-07-09 14.4 21.0 9.9- 81.3- 7.7 1.3---- 0.1------------
1994-07-08 15.7 20.5 13.9- 81.3- 7.7 1.0---- 4.2------------
1994-07-07 18.2 27.0 9.1- 68.8- 5.3 0.0---- 1.8------------
1994-07-06 18.6 23.5 13.0- 70.0- 1.7 1.0---- 0.0------------
1994-07-05 19.5 27.1 9.6- 68.3- 4.3 0.0---- 0.0------------
1994-07-04 18.6 26.3 9.6- 69.5- 0.0 0.7---- 0.0------------
1994-07-03 17.6 24.6 8.7- 65.5- 0.7 1.3---- 0.0------------
1994-07-02 16.9 23.5 9.3- 68.3- 0.3 1.0---- 0.0------------
1994-07-01 18.8 22.8 16.6- 72.8- 3.3 1.0---- 0.0------------
1994-06-30 22.1 29.8 16.4- 80.3- 5.3 0.0---- 0.7------------
1994-06-29 22.8 29.6 14.6- 70.0- 1.3 1.3---- 0.0------------
1994-06-28 22.5 29.2 15.8- 74.8- 2.3 0.7---- 0.0------------
1994-06-27 23.1 29.6 14.9- 66.0- 5.0 1.0---- 0.0------------
1994-06-26 18.4 26.3 8.5- 61.0- 0.7 1.7---- 0.0------------
1994-06-25 14.3 21.7 3.6- 67.0- 0.3 0.3---- 0.0------------
1994-06-24 13.7 19.6 4.8- 61.8- 0.0 1.3---- 0.0------------
1994-06-23 17.9 21.4 15.1- 65.5- 4.0 1.0---- 0.0------------
1994-06-22 17.1 25.0 6.1- 69.3- 4.0 1.3---- 0.0------------
1994-06-21 14.1 19.5 7.1- 73.0- 2.7 1.7---- 0.0------------
1994-06-20 16.8 21.4 11.5- 74.8- 3.7 0.7---- 0.0------------
1994-06-19 15.6 21.6 10.6- 76.3- 7.0 2.3---- 0.0------------
1994-06-18 11.0 17.1 1.8- 67.8- 5.3 2.7---- 4.9------------
1994-06-17 10.2 14.7 8.3- 80.0- 5.7 1.7---- 1.1------------
1994-06-16 13.9 19.1 6.6- 76.5- 6.0 0.3---- 3.8------------
284.5 ms

 

Źródłem pochodzenia danych jest Instytut Meteorologii i Gospodarki Wodnej – Państwowy Instytut Badawczy. Dane Instytutu Meteorologii i Gospodarki Wodnej – Państwowego Instytutu Badawczego zostały przetworzone.

Dane źródłowe można odnaleźć na stronie https://dane.imgw.pl